LTBA/IST METAR and TAF weather

Enter ICAO airport designator
Station Type Date Time Source
LTBA METAR 2021/04/17 01:20 UTC NOAA

LTBA 170120Z 05015KT 9999 SCT035 BKN070 11/07 Q1019 NOSIG


Station Type Date Time Source
LTBA Decoded METAR 2021/04/17 01:20 UTC NOAA

Istanbul / Ataturk, Turkey (LTBA) 40-58N 028-49E 37M
Apr 16, 2021 - 09:20 PM EDT / 2021.04.17 0120 UTC
Wind: from the NE (050 degrees) at 17 MPH (15 KT):0
Visibility: greater than 7 mile(s):0
Sky conditions: mostly cloudy
Temperature: 51 F (11 C)
Dew Point: 44 F (7 C)
Relative Humidity: 76%
Pressure (altimeter): 30.09 in. Hg (1019 hPa)
ob: LTBA 170120Z 05015KT 9999 SCT035 BKN070 11/07 Q1019 NOSIG
cycle: 1

Station Type Date Time Source
LTBA TAF 2021/04/16 18:03 UTC NOAA

TAF LTBA 161640Z 1618/1724 05012KT 9999 SCT030 BKN090
BECMG 1618/1621 -SHRA BKN025
BECMG 1712/1715 05018G28KT SCT030

Example: see airport list